Date,TemperatureHighF,TemperatureAvgF,TemperatureLowF,DewpointHighF,DewpointAvgF,DewpointLowF,HumidityHigh,HumidityAvg,HumidityLow,PressureMaxIn,PressureMinIn,WindSpeedMaxMPH,WindSpeedAvgMPH,GustSpeedMaxMPH,PrecipitationSumIn
2013-1-1,49,43,37,46,38,35,95,84,66,30.05,29.50,4,0,10,0.15
2013-1-2,52,46,38,50,44,35,96,91,82,30.33,30.05,6,0,7,0.01
2013-1-3,54,52,50,50,49,47,97,91,85,30.62,30.33,3,0,7,0.00
2013-1-4,51,50,47,47,45,43,93,85,77,30.65,30.60,4,0,9,0.00
2013-1-5,52,49,45,50,47,44,99,92,84,30.60,30.51,4,0,8,0.00
2013-1-6,48,45,44,46,44,43,99,97,91,30.52,30.39,2,0,4,0.00
2013-1-7,49,47,45,46,45,44,98,93,88,30.39,30.25,3,0,8,0.00
2013-1-8,54,50,47,48,46,44,97,87,77,30.27,30.18,2,0,7,0.02
2013-1-9,50,44,32,49,42,32,99,93,70,30.18,30.07,2,0,6,0.09
2013-1-10,40,36,31,37,35,31,99,95,88,30.07,29.92,3,0,6,0.01
2013-1-11,46,37,31,40,35,31,99,94,76,30.08,29.96,1,0,3,0.00
2013-1-12,41,39,34,38,34,28,99,84,58,29.97,29.83,4,1,12,0.04
2013-1-13,40,36,32,36,30,27,89,76,67,30.14,29.94,6,0,12,0.00
2013-1-14,38,34,32,36,32,28,98,91,83,30.10,29.63,4,0,10,0.15
2013-1-15,38,34,26,33,30,25,96,88,78,29.87,29.62,4,0,14,0.00
2013-1-16,36,29,24,30,27,23,99,94,78,30.02,29.83,3,0,4,0.00
2013-1-17,43,31,22,34,27,22,99,85,59,30.07,29.87,2,0,4,0.01
2013-1-18,35,31,28,30,28,26,95,87,73,29.87,29.41,4,1,11,0.00
2013-1-19,34,32,30,32,29,26,96,88,78,29.47,29.38,5,0,14,0.00
2013-1-20,33,31,30,31,29,26,97,90,80,29.45,29.27,5,0,11,0.00
2013-1-21,39,31,25,31,29,24,97,91,69,29.49,29.25,0,0,0,0.00
2013-1-22,37,31,23,34,29,22,99,92,80,29.67,29.49,6,0,13,0.19
2013-1-23,38,36,35,33,31,30,87,83,76,29.80,29.67,0,0,6,0.05
2013-1-24,36,34,33,32,30,26,95,82,67,30.14,29.80,0,0,1,0.00
2013-1-25,38,35,32,35,30,27,93,82,73,30.12,29.56,4,0,12,0.02
2013-1-26,49,42,36,44,39,34,99,88,69,29.83,29.54,8,1,17,0.11
2013-1-27,51,47,40,49,41,33,97,81,52,29.62,29.27,7,1,18,0.30
2013-1-28,52,44,37,50,40,34,98,86,75,29.82,29.52,0,0,0,0.25
2013-1-29,57,54,49,54,51,46,97,90,79,29.65,29.55,0,0,0,0.04
2013-1-30,55,50,45,53,43,36,97,77,51,30.05,29.51,0,0,0,0.18
2013-1-31,53,49,45,46,41,37,93,74,58,30.05,29.80,0,0,0,0.06
2013-2-1,47,42,38,42,39,36,96,88,75,29.85,29.45,0,0,0,0.27
2013-2-2,44,39,30,38,31,25,96,75,59,30.24,29.59,0,0,0,0.01
2013-2-3,50,41,30,46,37,25,91,84,76,30.25,29.91,0,0,0,0.00
2013-2-4,53,48,43,47,40,33,90,73,52,29.95,29.72,0,0,0,0.00
2013-2-5,45,41,36,39,32,26,95,73,48,29.72,29.33,0,0,0,0.11
2013-2-6,43,40,36,39,35,27,94,82,67,29.95,29.35,0,0,0,0.06
2013-2-7,43,37,32,36,30,26,96,77,61,30.00,29.87,0,0,0,0.05
2013-2-8,46,38,32,36,33,30,97,83,55,30.03,29.91,0,0,0,0.00
2013-2-9,40,37,34,37,35,31,95,90,79,30.04,29.74,0,0,0,0.01
2013-2-10,42,38,34,40,37,33,99,96,91,29.74,29.14,0,0,0,0.32
2013-2-11,36,34,33,34,33,33,99,96,91,29.65,29.16,0,0,0,0.11
2013-2-12,36,35,34,34,30,28,95,83,75,29.86,29.65,0,0,0,0.00
2013-2-13,40,37,34,39,34,30,95,90,85,29.92,29.79,0,0,0,0.01
2013-2-14,53,47,40,48,42,37,99,84,63,29.80,29.54,0,0,0,0.05
2013-2-15,52,42,35,40,36,33,98,80,51,30.02,29.80,0,0,0,0.00
2013-2-16,54,44,35,39,36,31,96,75,42,30.06,30.01,0,0,0,0.00
2013-2-17,37,36,33,36,35,32,97,96,94,30.02,29.91,0,0,0,0.00
2013-2-18,52,39,31,38,34,30,99,83,51,29.95,29.89,0,0,0,0.00
2013-2-19,56,37,26,39,32,25,99,83,47,29.93,29.84,0,0,0,0.00
2013-2-20,44,38,34,39,32,27,99,80,59,30.05,29.90,0,0,0,0.02
2013-2-21,37,34,32,27,23,20,71,62,54,30.06,29.95,0,0,0,0.00
2013-2-22,36,34,33,26,23,20,72,64,57,29.95,29.88,0,0,0,0.00
2013-2-23,36,34,32,28,25,22,79,68,55,30.00,29.88,0,0,0,0.00
2013-2-24,37,35,33,29,27,26,83,74,67,30.07,29.98,0,0,0,0.00
2013-2-25,40,38,35,36,34,28,90,84,75,30.17,30.05,7,1,13,0.00
2013-2-26,41,39,37,39,38,35,98,93,87,30.35,30.16,6,2,14,0.01
2013-2-27,45,39,36,38,34,33,95,83,64,30.36,30.27,8,3,14,0.00
2013-2-28,47,40,35,38,34,32,91,81,67,30.28,30.13,7,2,12,0.00
2013-3-1,45,40,37,41,35,30,99,81,62,30.20,30.14,7,2,14,0.01
2013-3-2,48,38,28,32,30,26,94,74,55,30.20,30.07,4,1,11,0.00
2013-3-3,49,37,25,36,32,24,98,84,61,30.09,29.90,5,1,11,0.00
2013-3-4,46,36,31,36,33,29,98,91,67,29.92,29.73,5,1,11,0.00
2013-3-5,66,46,29,44,38,29,99,76,44,29.87,29.71,3,0,7,0.00
2013-3-6,58,50,45,45,42,39,88,75,60,29.71,29.63,4,1,7,0.00
2013-3-7,50,48,45,50,47,43,99,97,89,29.65,29.50,3,1,7,0.17
2013-3-8,51,49,48,50,49,47,99,99,99,29.68,29.50,4,0,8,0.35
2013-3-9,48,44,38,47,42,34,99,93,82,29.80,29.66,3,0,7,0.04
2013-3-10,40,37,34,35,32,28,87,81,75,29.87,29.78,8,3,17,0.00
2013-3-11,34,32,30,28,24,20,86,74,64,29.94,29.83,10,6,23,0.00
2013-3-12,42,35,29,32,22,16,85,62,40,30.03,29.91,11,5,27,0.00
2013-3-13,48,38,30,32,29,25,92,72,41,30.16,29.99,4,1,9,0.00
2013-3-14,50,36,26,33,26,22,99,72,38,30.23,30.13,4,0,8,0.00
2013-3-15,49,43,37,43,38,27,93,82,66,30.12,29.77,8,2,18,0.06
2013-3-16,48,44,42,44,41,38,94,89,81,29.76,29.48,8,3,17,0.40
2013-3-17,46,40,32,42,38,32,98,92,84,29.53,29.36,4,1,9,0.14
2013-3-18,48,38,29,44,36,29,99,96,80,29.56,29.41,2,0,4,0.30
2013-3-19,52,42,36,40,38,34,99,85,60,29.98,29.56,4,0,8,0.01
2013-3-20,52,42,37,40,36,34,93,81,60,30.32,29.92,4,1,8,0.00
2013-3-21,47,40,32,35,33,31,95,78,60,30.34,30.23,6,2,12,0.00
2013-3-22,44,39,36,36,35,32,93,85,72,30.23,30.03,9,4,18,0.11
2013-3-23,83,35,33,81,34,32,99,95,88,30.17,30.05,98,4,98,0.21
2013-3-24,35,33,32,34,28,23,97,82,61,30.25,30.16,30,4,30,0.00
2013-3-25,35,34,33,26,24,23,72,67,61,30.27,30.22,8,4,19,0.00
2013-3-26,36,35,33,26,24,23,71,65,60,30.25,30.19,8,4,17,0.00
2013-3-27,43,36,32,27,25,22,80,65,47,30.20,30.15,8,2,14,0.00
2013-3-28,42,36,28,31,26,20,93,67,47,30.26,30.15,7,2,12,0.00
2013-3-29,46,39,34,28,25,23,76,60,47,29.92,29.86,6,2,12,0.00
2013-3-30,45,37,32,32,28,24,87,71,51,30.06,29.85,7,2,14,0.00
2013-3-31,43,35,23,32,26,22,98,70,46,30.06,29.98,6,1,12,0.00
2013-4-1,46,38,33,30,26,21,82,65,41,29.98,29.91,9,3,18,0.00
2013-4-2,49,40,32,31,24,15,86,57,26,30.14,29.96,10,3,18,0.00
2013-4-3,40,37,31,31,26,23,92,66,53,30.14,30.07,8,3,18,0.00
2013-4-4,38,36,33,33,29,23,93,75,58,30.07,29.97,8,4,18,0.01
2013-4-5,46,40,33,32,28,21,82,63,38,30.20,29.96,8,4,28,0.01
2013-4-6,59,42,27,33,29,6,94,65,27,30.37,30.19,7,1,14,0.00
2013-4-7,55,42,15,33,26,-4,94,59,25,30.37,29.96,24,1,7,12.09
2013-4-8,53,44,39,36,32,28,84,66,41,29.96,29.63,7,2,14,0.00
2013-4-9,50,43,38,46,40,36,96,89,67,29.63,29.46,14,2,10,0.04
2013-4-10,52,45,37,43,40,35,98,84,63,29.92,29.53,5,1,11,0.12
2013-4-11,62,48,43,46,44,42,99,88,53,29.97,29.83,5,1,13,0.08
2013-4-12,55,49,44,49,46,42,98,90,73,30.23,29.78,4,1,8,0.44
2013-4-13,54,48,-33,52,45,-34,98,89,70,30.39,30.23,6,2,17,0.11
2013-4-14,71,59,52,53,50,46,98,72,46,30.45,30.37,8,2,18,0.01
2013-4-15,62,56,49,50,48,44,86,74,58,30.55,30.43,4,1,11,0.00
2013-4-16,66,56,49,49,46,42,93,71,43,30.58,30.39,5,2,12,0.00
2013-4-17,70,57,48,53,50,45,98,79,51,30.58,30.27,6,2,12,0.00
2013-4-18,61,52,46,47,41,34,91,67,49,30.58,30.29,8,3,14,0.24
2013-4-19,61,50,41,43,39,32,89,68,35,30.99,30.58,4,1,11,0.00
2013-4-20,61,46,32,42,33,25,99,64,26,31.03,30.85,5,1,12,0.00
2013-4-21,67,47,30,41,34,28,98,65,30,30.85,30.51,4,0,8,0.00
2013-4-22,65,52,44,48,44,40,95,75,42,30.51,30.44,4,1,11,0.00
2013-4-23,77,61,50,50,48,45,95,66,35,30.70,30.46,4,1,8,0.00
2013-4-24,72,59,48,55,51,45,94,74,51,30.75,30.67,4,1,8,0.01
2013-4-25,78,62,50,56,51,48,99,73,36,30.74,30.49,4,1,9,0.00
2013-4-26,62,50,43,49,39,26,96,68,37,30.52,30.38,4,1,13,0.13
2013-4-27,56,44,36,44,36,32,95,76,44,30.58,30.37,7,1,14,0.05
2013-4-28,57,46,31,41,34,30,99,68,41,30.59,30.38,4,1,10,0.01
2013-4-29,64,52,45,44,37,31,88,59,32,30.66,30.37,6,2,12,0.00
2013-4-30,62,49,36,40,36,30,94,63,31,30.79,30.66,6,2,18,0.00
2013-5-1,57,44,36,41,37,32,91,77,45,30.79,29.82,4,1,26,0.00
2013-5-2,70,53,36,36,28,11,80,44,15,29.86,29.80,6,1,12,0.00
2013-5-3,74,55,36,44,38,31,88,57,22,29.83,29.68,12,1,99,0.76
2013-5-4,94,56,46,88,42,31,84,62,32,29.78,29.62,5,1,53,0.04
2013-5-5,102,58,32,93,46,25,91,66,22,29.84,29.78,25,1,25,0.38
2013-5-6,79,61,51,52,48,25,86,64,20,29.82,29.69,27,0,5,0.05
2013-5-7,93,60,43,91,45,38,95,62,31,29.73,29.51,189,2,98,0.02
2013-5-8,73,58,51,63,50,45,97,74,54,29.50,29.34,4,1,9,0.01
2013-5-9,61,52,44,49,44,39,92,75,50,29.49,29.33,6,2,14,0.06
2013-5-10,68,56,-1,49,46,-12,87,73,41,29.58,29.33,5,2,11,0.00
2013-5-11,58,49,44,52,46,43,97,88,65,29.57,29.44,25,1,25,0.19
2013-5-14,50,48,46,49,47,42,98,95,84,29.92,29.78,4,2,11,0.08
2013-5-15,66,50,43,45,41,38,90,72,43,30.11,29.71,5,2,16,0.00
2013-5-16,70,52,38,45,39,35,99,66,33,30.12,30.03,2,0,7,0.00
2013-5-17,56,49,39,46,42,38,98,78,62,30.37,30.12,4,1,9,0.00
2013-5-18,68,54,46,46,44,42,87,70,43,30.36,30.27,4,0,8,0.00
2013-5-19,73,58,46,50,47,44,94,69,41,30.45,30.33,4,1,10,0.00
2013-5-20,63,58,52,58,54,48,93,86,79,30.46,30.39,2,0,7,0.00
2013-5-21,65,58,53,57,51,47,87,80,57,30.63,30.46,4,1,12,0.00
2013-5-22,64,54,48,48,45,36,90,73,44,30.66,30.58,4,1,8,0.00
2013-5-23,60,49,43,42,36,32,78,63,38,30.57,30.44,4,1,11,0.00
2013-5-24,115,46,42,100,42,37,93,86,78,30.55,30.18,28,2,100,0.25
2013-5-25,72,56,10,51,39,-1,96,56,30,30.72,30.57,27,1,101,0.00
2013-5-26,75,57,40,42,39,36,94,56,25,30.69,30.52,4,1,11,0.00
2013-5-27,69,56,44,45,40,36,84,57,31,30.52,30.18,4,1,13,0.00
2013-5-28,58,52,49,55,49,42,99,90,66,30.18,30.03,1,0,4,0.50
2013-5-29,58,52,46,54,49,46,98,90,72,30.32,30.12,2,0,100,0.05
2013-5-30,63,55,52,55,52,50,99,89,71,30.55,30.30,5,1,10,0.24
2013-5-31,78,62,52,57,52,49,91,73,45,30.68,30.55,3,0,9,0.00
2013-6-1,59,59,58,50,50,50,76,73,71,30.69,30.68,2,1,5,0.00
2013-6-2,69,59,51,47,45,42,79,61,38,29.95,29.92,3,1,6,12.25
2013-6-3,71,57,42,51,44,40,98,64,35,29.99,29.91,5,1,11,0.00
2013-6-4,74,60,46,48,43,39,78,54,34,29.93,29.71,8,2,14,0.00
2013-6-5,75,60,48,50,46,41,88,64,34,29.73,29.59,6,2,10,0.02
2013-6-6,76,61,48,53,48,45,89,65,43,29.70,29.63,6,2,14,0.00
2013-6-7,72,60,50,56,49,44,90,69,48,29.73,29.66,5,2,12,0.05
2013-6-8,68,57,48,48,46,44,87,68,46,29.72,29.57,7,3,15,0.00
2013-6-9,61,55,51,48,46,43,82,71,61,29.58,29.47,7,3,12,0.00
2013-6-10,64,56,50,48,45,42,82,67,54,29.51,29.45,3,0,7,0.00
2013-6-11,65,58,47,61,53,44,91,85,76,29.48,29.40,3,1,9,0.00
2013-6-12,65,60,58,61,57,53,96,89,71,29.41,29.31,50,2,50,0.06
2013-6-13,68,59,53,56,51,46,93,77,56,29.55,29.29,6,2,15,0.01
2013-6-14,71,60,49,52,48,38,88,68,32,29.57,29.31,4,1,12,0.00
2013-6-15,67,58,52,54,50,45,97,75,48,29.39,29.20,5,2,14,0.20
2013-6-16,72,60,52,52,49,46,88,69,45,29.47,29.39,2,1,8,0.00
2013-6-17,73,63,54,53,50,47,88,65,45,29.48,29.41,7,2,14,0.00
2013-6-18,61,58,56,55,53,52,89,82,72,29.45,29.40,5,2,8,0.00
2013-6-19,87,71,60,64,60,58,96,73,42,29.95,29.88,6,1,11,12.58
2013-6-20,75,66,60,68,60,13,92,82,12,29.93,29.77,24,1,24,0.00
2013-6-21,76,64,58,67,58,54,94,81,56,29.85,29.74,4,1,9,0.00
2013-6-22,68,59,53,58,53,19,98,80,22,29.84,29.63,7,3,56,0.08
2013-6-23,66,59,54,54,52,50,93,77,61,30.00,29.63,4,2,11,0.00
2013-6-24,67,57,51,50,46,39,87,69,39,30.20,30.00,4,1,51,0.00
2013-6-27,74,64,54,54,51,47,95,65,39,29.91,29.75,3,1,7,0.04
2013-6-28,72,62,54,64,58,53,99,90,72,29.75,29.61,4,0,9,0.08
2013-6-29,79,66,57,58,50,45,87,59,33,29.82,29.64,4,1,8,0.00
2013-6-30,84,71,58,61,57,52,95,64,39,29.81,29.62,4,1,11,0.00
2013-7-1,74,64,56,55,50,46,86,63,40,29.65,29.55,3,1,8,0.00
2013-7-2,65,59,53,54,50,48,85,74,58,29.57,29.30,3,1,10,0.00
2013-7-3,74,66,58,60,57,54,91,73,53,30.25,29.92,4,1,8,0.09
2013-7-4,82,66,54,64,58,51,94,76,51,30.50,30.25,5,1,9,0.00
2013-7-5,86,68,52,60,54,51,95,65,30,30.65,30.50,3,1,8,0.00
2013-7-6,90,72,53,61,56,51,93,60,28,30.66,30.56,3,0,8,0.00
2013-7-7,90,71,-7,63,58,-18,98,68,15,30.74,30.65,13,1,100,0.43
2013-7-8,113,73,60,97,56,51,92,58,34,30.76,30.64,27,3,55,0.00
2013-7-9,86,68,56,57,47,32,80,52,16,30.68,30.48,8,2,97,0.00
2013-7-10,81,68,53,58,53,47,87,61,40,30.52,30.45,6,2,14,0.00
2013-7-11,79,66,52,52,48,45,90,56,31,30.54,30.44,6,2,98,1.51
2013-7-12,83,65,35,58,53,13,86,67,36,30.53,30.44,4,1,8,0.05
2013-7-13,95,75,59,65,60,56,93,63,31,30.49,30.42,4,1,8,0.00
2013-7-14,91,76,62,66,58,51,90,58,28,30.48,30.40,4,1,9,0.00
2013-7-15,91,73,61,59,53,35,82,55,14,30.47,29.93,2,0,4,0.00
2013-7-16,94,77,62,61,57,51,82,55,24,29.98,29.91,3,0,7,0.00
2013-7-17,94,78,62,60,56,52,79,51,25,30.02,29.94,4,0,6,0.38
2013-7-18,89,75,64,60,57,52,81,57,29,30.07,30.00,6,2,11,0.00
2013-7-19,86,75,62,61,56,50,75,52,33,30.06,29.95,7,3,13,0.38
2013-7-20,79,68,62,61,59,56,91,74,51,30.00,29.90,5,2,11,0.00
2013-7-21,84,70,63,62,59,54,88,70,44,29.92,29.77,4,2,10,0.00
2013-7-22,96,78,64,66,61,54,96,62,27,29.81,29.69,4,1,8,0.00
2013-7-23,88,74,65,70,65,58,95,74,45,29.71,29.64,4,0,8,0.06
2013-7-24,87,70,59,62,59,55,92,69,35,29.73,29.67,5,1,8,0.00
2013-7-25,83,70,62,67,62,57,99,76,43,29.70,29.62,5,1,50,0.15
2013-7-26,87,72,55,61,55,50,99,60,33,29.68,29.59,2,0,6,0.00
2013-7-27,89,69,56,68,57,49,99,70,27,29.61,29.33,3,0,8,0.27
2013-7-28,77,68,58,62,59,57,99,76,51,29.55,29.34,4,1,11,0.32
2013-7-29,77,68,60,62,59,54,99,77,46,29.73,29.53,6,2,15,0.02
2013-7-30,76,64,60,66,61,58,99,91,69,29.74,29.61,3,1,7,0.11
2013-7-31,78,68,61,66,62,59,92,82,64,29.76,29.70,4,1,10,0.00
2013-8-1,96,81,60,69,63,57,99,59,28,29.70,29.43,6,1,15,0.00
2013-8-2,82,70,64,65,60,56,96,73,48,29.59,29.49,4,1,11,0.05
2013-8-3,79,68,59,61,57,52,99,72,43,29.85,29.57,4,2,11,0.12
2013-8-4,78,67,56,60,56,52,99,72,42,29.87,29.78,5,1,13,0.00
2013-8-5,78,66,60,64,60,54,99,81,53,29.79,29.51,5,1,11,0.30
2013-8-6,80,65,52,60,53,44,99,71,29,29.80,29.67,2,0,4,0.01
2013-8-7,81,66,55,58,51,45,98,63,31,29.80,29.66,5,1,10,0.00
2013-8-8,83,66,50,58,52,44,99,64,25,29.88,29.79,3,0,9,0.00
2013-8-9,80,68,61,64,55,46,98,68,33,29.95,29.78,6,1,10,0.04
2013-8-10,76,65,55,53,48,42,79,57,31,29.97,29.89,2,0,7,0.00
2013-8-11,80,68,59,59,52,44,83,60,29,29.89,29.75,4,1,9,0.00
2013-8-12,74,63,55,54,48,39,87,60,30,29.85,29.75,4,1,11,0.00
2013-8-13,72,60,50,57,50,44,95,72,39,29.97,29.85,4,0,10,0.01
2013-8-14,78,63,51,62,56,50,99,80,44,29.98,29.90,4,0,10,0.09
2013-8-15,77,65,61,64,61,58,99,90,59,29.93,29.85,3,1,8,0.01
2013-8-16,78,66,62,64,62,59,96,86,62,29.91,29.83,4,1,9,0.02
2013-8-17,70,63,56,62,58,56,99,85,64,29.88,29.64,5,2,11,0.02
2013-8-18,81,67,60,64,59,52,99,77,38,29.80,29.62,4,1,10,0.01
2013-8-19,80,64,52,55,51,45,93,65,31,30.07,29.80,4,0,8,0.00
2013-8-20,83,72,59,56,50,43,83,50,24,29.93,29.84,4,0,8,0.00
2013-8-21,86,68,53,59,53,47,95,63,26,29.87,29.70,3,0,8,0.00
2013-8-22,78,66,61,69,63,58,99,91,63,29.72,29.61,3,0,4,0.43
2013-8-23,85,70,58,64,60,52,99,74,39,29.62,29.41,4,1,12,0.00
2013-8-24,68,63,57,65,62,57,99,96,84,29.44,29.37,2,0,7,0.52
2013-8-25,77,63,55,66,59,54,99,87,55,29.60,29.39,6,1,11,0.20
2013-8-26,83,72,-11,64,54,-32,99,56,30,29.65,29.58,18,2,18,0.94
2013-8-27,81,63,50,60,53,46,99,74,30,29.65,29.59,2,0,5,0.00
2013-9-6,70,60,54,61,55,50,98,84,53,30.01,29.89,3,0,6,15.80
2013-9-7,70,58,50,55,50,45,97,76,42,30.21,29.99,5,1,11,0.02
2013-9-8,64,54,46,57,49,45,99,85,52,30.24,30.20,4,0,11,0.08
2013-9-9,58,52,47,57,52,47,99,97,93,30.23,30.12,4,0,8,0.25
2013-9-10,96,59,49,95,50,46,99,75,52,30.32,30.22,4,1,9,0.01
2013-9-11,60,56,53,56,51,48,99,86,70,30.34,30.27,2,0,5,0.09
2013-9-12,73,58,0,60,56,-4,99,92,59,30.27,30.24,3,0,49,0.04
2013-9-13,69,63,56,66,63,56,99,98,85,30.22,30.02,2,0,6,0.78
2013-9-14,62,52,46,61,52,29,99,97,34,30.24,30.02,3,0,8,0.14
2013-9-15,61,53,44,60,51,44,99,93,58,30.23,29.71,5,1,12,0.18
2013-9-16,64,53,46,55,43,35,99,71,38,29.81,29.73,5,1,14,0.01
2013-9-17,60,53,46,59,50,42,99,89,66,29.82,29.50,3,0,8,0.20
2013-9-25,79,68,58,63,61,55,99,80,53,29.96,29.88,2,0,5,0.04
2013-9-26,70,61,54,62,55,46,99,82,44,30.12,29.96,4,1,10,0.00
2013-9-27,67,56,47,55,51,47,99,84,54,30.12,29.98,97,2,11,0.00
2013-9-28,67,59,54,59,55,51,99,86,65,29.98,29.79,7,2,14,0.01
2013-9-29,68,60,57,56,54,52,92,81,62,29.80,29.76,8,3,16,0.00
2013-9-30,67,60,54,57,54,51,99,84,59,29.84,29.73,5,1,12,0.00
2013-10-1,64,58,52,58,54,52,99,86,73,29.88,29.81,4,1,8,0.00
2013-10-2,74,62,57,63,58,53,99,87,64,29.95,29.84,3,1,7,0.00
2013-10-3,66,62,55,65,61,55,99,98,90,29.93,29.76,4,1,10,0.06
2013-10-4,72,64,59,65,62,58,99,92,67,29.97,29.74,4,1,12,0.02
2013-10-5,69,60,54,60,57,53,99,92,69,30.28,29.97,2,0,4,0.00
2013-10-6,75,57,45,60,51,45,99,83,37,30.33,30.28,2,0,5,0.00
2013-10-7,72,59,50,61,55,50,99,88,55,30.32,29.92,2,0,5,0.00
2013-10-8,75,63,56,62,59,55,99,89,54,29.94,29.88,3,0,7,0.00
2013-10-9,66,57,47,61,51,38,99,82,59,29.90,29.65,4,1,11,0.00
2013-10-10,57,49,45,43,38,34,80,68,44,29.77,29.66,4,1,14,0.00
2013-10-11,57,52,47,55,50,39,99,92,70,29.77,29.60,6,2,15,0.39
2013-10-12,63,53,46,55,48,39,99,85,42,29.77,29.60,6,1,11,0.12
2013-10-13,53,50,47,53,49,47,99,99,96,29.93,29.44,3,0,6,0.39
2013-10-14,56,50,47,51,48,47,99,96,76,29.92,29.84,4,1,8,0.14
2013-10-15,61,50,44,51,48,44,99,93,68,30.09,29.88,3,0,7,0.00
2013-10-16,66,51,40,62,49,40,99,93,73,30.10,29.82,4,1,11,0.09
2013-10-17,69,58,51,58,54,51,99,88,63,30.14,29.95,4,1,9,0.01
2013-10-18,64,56,48,60,55,48,99,94,79,30.15,29.90,4,0,11,0.00
2013-10-19,66,60,54,63,58,54,99,95,78,29.90,29.77,4,1,11,0.02
2013-10-20,66,58,54,59,56,53,99,95,74,29.88,29.77,4,1,12,0.32
2013-10-21,66,61,56,61,58,56,99,92,76,29.89,29.74,5,1,14,0.04
2013-10-22,66,62,57,62,59,54,99,91,81,29.74,29.46,4,2,11,0.13
2013-10-23,66,58,49,59,54,46,99,85,55,29.99,29.38,6,2,20,0.18
2013-10-24,68,53,41,57,49,41,99,89,56,30.11,29.94,3,0,8,0.00
2013-10-25,67,61,57,62,57,54,99,88,75,29.94,29.72,5,2,14,0.07
2013-10-26,64,60,58,58,56,54,96,85,72,29.84,29.62,8,2,19,0.02
2013-10-27,64,57,53,58,51,46,99,82,54,29.63,29.36,8,2,18,0.07
2013-10-28,61,55,47,61,49,42,99,83,55,29.73,29.04,9,2,22,0.58
2013-10-29,58,49,43,45,41,35,92,77,42,30.20,29.73,4,1,10,0.00
2013-10-30,62,50,39,51,44,38,99,80,46,30.31,30.20,4,1,13,0.00
2013-10-31,57,55,52,56,53,50,99,93,80,30.20,30.07,4,1,10,0.14
2013-11-1,59,55,52,57,52,50,99,92,82,30.07,29.66,3,0,9,0.07
2013-11-2,61,53,50,53,47,39,99,81,59,29.71,29.53,6,2,15,0.02
2013-11-3,57,49,45,47,40,36,99,72,45,29.72,29.16,5,2,11,0.04
2013-11-4,54,46,41,48,39,34,99,77,48,30.22,29.13,4,1,14,0.20
2013-11-5,56,49,40,54,43,36,99,83,58,30.24,29.98,5,1,15,0.19
2013-11-6,60,55,49,59,52,43,99,91,78,30.28,30.20,5,1,14,0.05
2013-11-7,59,51,46,57,46,38,96,82,57,30.51,30.24,3,0,8,0.01
2013-11-8,59,47,42,51,44,40,99,92,66,30.50,30.30,3,0,6,0.22
2013-11-9,47,43,38,46,42,37,99,96,90,30.50,30.33,2,0,5,0.17
2013-11-10,54,43,36,43,38,31,99,84,43,31.00,30.34,3,0,8,0.01
2013-11-11,56,50,35,56,48,33,99,95,77,30.99,30.86,4,1,10,0.08
2013-11-12,61,50,38,56,48,38,99,93,61,31.25,30.87,2,0,5,0.05
2013-11-13,56,43,35,46,38,34,99,84,51,31.30,30.94,3,0,6,0.01
2013-11-14,53,46,39,45,38,34,89,74,50,31.14,30.84,4,1,14,0.00
2013-11-15,55,41,34,37,34,30,95,76,47,31.26,31.14,4,0,8,0.00
2013-11-16,54,41,30,46,38,30,99,89,58,31.25,31.10,2,0,5,0.00
2013-11-17,50,47,45,47,46,44,99,94,84,31.10,30.74,2,0,4,0.01
2013-11-18,50,47,44,50,46,41,99,97,89,30.74,30.48,2,0,4,0.04
2013-11-19,48,38,29,42,31,25,95,77,44,30.78,30.52,2,0,6,0.00
2013-11-20,46,38,28,42,34,25,96,85,68,30.76,30.12,5,1,11,0.17
2013-11-21,49,41,36,41,35,29,99,81,49,30.65,30.14,7,2,17,0.00
2013-11-22,50,41,36,37,34,30,93,77,50,30.88,30.64,4,0,10,0.00
2013-11-23,51,41,35,40,37,34,99,86,59,31.04,30.87,2,0,5,0.01
2013-11-24,49,44,39,42,38,32,87,79,57,31.29,31.03,3,0,8,0.00
2013-11-25,47,42,40,37,35,33,87,76,60,31.41,31.29,2,0,6,0.00
2013-11-26,50,42,34,36,32,29,87,69,51,31.44,31.31,3,0,4,0.00
2013-11-27,51,47,42,48,44,36,98,90,77,31.31,31.21,1,0,2,0.01
2013-11-28,51,48,36,47,46,33,95,89,79,31.30,31.25,9,0,14,0.00
2013-11-29,51,47,43,45,40,33,96,75,55,31.25,30.91,6,1,11,0.00
2013-11-30,54,44,36,37,34,31,89,69,52,31.20,30.91,3,0,7,0.00
2013-12-1,50,42,34,42,38,31,94,85,71,31.29,31.17,2,0,3,0.00
2013-12-2,50,45,40,46,40,36,99,84,63,31.30,31.17,2,0,4,0.00
2013-12-3,44,43,41,40,34,31,91,72,63,31.17,31.05,2,0,5,0.00
2013-12-4,49,42,34,43,35,29,91,76,53,31.23,31.02,2,0,5,0.00
2013-12-5,51,44,34,44,32,25,89,65,42,31.21,30.76,6,2,13,0.04
2013-12-6,49,42,34,40,32,27,86,66,47,31.11,30.97,4,1,11,0.00
2013-12-7,49,46,43,43,41,39,90,84,69,31.08,31.00,2,0,5,0.00
2013-12-8,56,48,41,44,41,38,90,79,59,31.05,30.98,3,1,10,0.00
2013-12-9,56,46,37,46,42,36,99,89,66,31.15,31.04,3,0,7,0.00
2013-12-10,52,41,33,49,39,32,99,92,73,31.19,31.13,2,0,4,0.01
2013-12-11,39,32,30,39,32,29,99,99,96,31.17,31.03,1,0,2,0.00
2013-12-12,50,42,31,49,42,31,99,97,90,31.04,30.92,4,0,7,0.01
2013-12-13,54,51,45,51,47,42,99,89,69,30.92,30.75,4,1,8,0.06
2013-12-14,54,47,39,48,41,35,92,80,61,31.03,30.79,6,2,60,0.05
2013-12-15,54,52,46,54,51,44,99,96,86,30.90,30.73,7,2,14,0.18
2013-12-16,55,52,45,54,51,45,99,95,84,30.85,30.68,7,2,14,0.33
2013-12-17,46,42,40,45,42,39,99,97,88,31.00,30.69,2,0,4,0.20
2013-12-18,51,47,41,49,45,41,99,92,79,30.71,30.03,9,2,17,0.31
2013-12-19,51,44,37,47,37,31,94,78,47,30.59,30.05,4,1,10,0.12
2013-12-20,52,48,37,43,39,35,95,71,56,30.62,29.85,7,2,16,0.00
2013-12-21,54,51,49,51,48,40,98,88,70,29.86,29.53,8,4,20,0.37
2013-12-22,53,47,41,43,37,31,83,69,49,29.73,29.53,6,2,14,0.00
2013-12-23,53,49,41,51,44,33,95,83,71,29.73,28.69,10,4,24,1.03
2013-12-24,53,47,42,51,42,35,96,83,67,28.80,28.61,11,2,23,0.74
2013-12-25,48,40,37,40,37,34,99,88,72,29.92,28.73,2,0,7,0.11
2013-12-26,47,39,35,44,38,35,99,96,63,30.25,29.91,8,1,21,0.01
2013-12-27,52,49,44,52,40,32,98,72,58,30.01,29.76,10,3,21,0.17
2013-12-28,48,40,33,35,32,28,93,74,57,30.46,30.01,7,0,6,0.00
2013-12-29,50,40,33,40,35,32,99,83,54,30.84,30.46,3,1,8,0.01
2013-12-30,52,48,43,47,43,38,92,82,66,30.76,30.42,10,3,100,0.25
2013-12-31,52,47,42,47,42,32,96,85,65,30.60,30.29,6,2,14,0.22
2014-1-1,52,48,43,49,45,38,96,88,79,30.34,29.79,11,3,19,0.61
2014-1-2,53,49,43,48,42,38,92,78,58,30.05,29.82,7,2,15,0.27